createdAt,value
2024-03-15T00:00:28.295Z,7.43
2024-03-15T00:03:15.516Z,8.40
2024-03-15T00:06:02.841Z,8.13
2024-03-15T00:08:50.582Z,8.13
2024-03-15T00:11:37.603Z,7.97
2024-03-15T00:14:25.664Z,8.23
2024-03-15T00:17:12.940Z,7.77
2024-03-15T00:19:59.920Z,7.83
2024-03-15T00:22:46.944Z,7.13
2024-03-15T00:25:34.013Z,8.53
2024-03-15T00:28:22.901Z,7.87
2024-03-15T00:31:09.889Z,8.20
2024-03-15T00:33:56.902Z,8.17
2024-03-15T00:36:45.228Z,7.87
2024-03-15T00:39:32.740Z,8.13
2024-03-15T00:42:19.829Z,7.77
2024-03-15T00:45:08.215Z,8.03
2024-03-15T00:47:56.338Z,7.77
2024-03-15T00:50:44.893Z,7.67
2024-03-15T00:53:32.416Z,7.97
2024-03-15T00:56:19.431Z,8.83
2024-03-15T00:59:09.711Z,8.50
2024-03-15T01:01:56.745Z,6.90
2024-03-15T01:04:43.697Z,7.80
2024-03-15T01:07:30.699Z,7.63
2024-03-15T01:10:17.693Z,7.47
2024-03-15T01:13:04.977Z,7.27
2024-03-15T01:15:52.077Z,7.83
2024-03-15T01:18:40.123Z,6.70
2024-03-15T01:21:27.735Z,6.37
2024-03-15T01:24:14.960Z,6.53
2024-03-15T01:27:01.970Z,8.10
2024-03-15T01:29:49.276Z,6.80
2024-03-15T01:32:37.145Z,5.97
2024-03-15T01:35:24.759Z,4.97
2024-03-15T01:38:12.094Z,4.97
2024-03-15T01:40:59.133Z,7.03
2024-03-15T01:43:51.710Z,6.10
2024-03-15T01:46:38.720Z,5.23
2024-03-15T01:49:26.892Z,7.43
2024-03-15T01:52:14.376Z,6.87
2024-03-15T01:55:02.342Z,6.23
2024-03-15T01:57:49.464Z,7.80
2024-03-15T02:00:38.495Z,6.30
2024-03-15T02:03:25.594Z,5.20
2024-03-15T02:06:15.531Z,4.70
2024-03-15T02:09:02.569Z,4.37
2024-03-15T02:11:49.569Z,4.27
2024-03-15T02:14:36.763Z,3.90
2024-03-15T02:17:23.914Z,3.43
2024-03-15T02:20:13.485Z,3.60
2024-03-15T02:23:00.606Z,3.53
2024-03-15T02:25:48.068Z,3.80
2024-03-15T02:28:35.228Z,4.60
2024-03-15T02:31:24.390Z,5.50
2024-03-15T02:34:11.464Z,4.77
2024-03-15T02:36:58.505Z,5.20
2024-03-15T02:39:45.551Z,5.50
2024-03-15T02:42:32.624Z,5.10
2024-03-15T02:45:22.478Z,4.70
2024-03-15T02:48:09.869Z,4.63
2024-03-15T02:50:56.912Z,3.23
2024-03-15T02:53:44.628Z,2.43
2024-03-15T02:56:31.610Z,4.33
2024-03-15T02:59:20.606Z,4.43
2024-03-15T03:02:09.851Z,3.30
2024-03-15T03:04:56.859Z,3.73
2024-03-15T03:07:44.336Z,4.30
2024-03-15T03:10:31.753Z,3.80
2024-03-15T03:13:18.874Z,3.00
2024-03-15T03:16:08.932Z,2.90
2024-03-15T03:18:55.996Z,3.50
2024-03-15T03:21:43.060Z,3.60
2024-03-15T03:24:30.101Z,3.57
2024-03-15T03:27:17.273Z,4.00
2024-03-15T03:30:05.026Z,4.87
2024-03-15T03:32:53.069Z,5.57
2024-03-15T03:35:43.002Z,4.83
2024-03-15T03:38:30.083Z,5.07
2024-03-15T03:41:17.165Z,6.23
2024-03-15T03:44:04.613Z,6.23
2024-03-15T03:46:52.018Z,7.97
2024-03-15T03:49:39.391Z,8.73
2024-03-15T03:52:26.434Z,7.00
2024-03-15T03:55:15.229Z,6.40
2024-03-15T03:58:03.793Z,7.40
2024-03-15T04:00:51.038Z,8.37
2024-03-15T04:03:38.165Z,8.60
2024-03-15T04:06:25.594Z,7.67
2024-03-15T04:09:12.745Z,6.93
2024-03-15T04:12:00.563Z,9.03
2024-03-15T04:14:55.714Z,7.03
2024-03-15T04:17:43.331Z,6.67
2024-03-15T04:20:30.938Z,6.60
2024-03-15T04:23:22.408Z,7.50
2024-03-15T04:26:10.817Z,6.77
2024-03-15T04:28:58.596Z,5.50
2024-03-15T04:31:45.605Z,7.03
2024-03-15T04:34:32.579Z,6.13
2024-03-15T04:37:21.191Z,5.97
2024-03-15T04:40:10.486Z,6.90
2024-03-15T04:42:58.415Z,5.07
2024-03-15T04:45:45.513Z,5.57
2024-03-15T04:48:32.843Z,5.50
2024-03-15T04:51:19.890Z,6.40
2024-03-15T04:54:09.699Z,6.00
2024-03-15T04:56:56.677Z,6.30
2024-03-15T04:59:43.652Z,5.83
2024-03-15T05:02:30.660Z,5.43
2024-03-15T05:05:18.442Z,6.50
2024-03-15T05:08:06.363Z,5.93
2024-03-15T05:10:53.509Z,5.60
2024-03-15T05:13:40.701Z,4.80
2024-03-15T05:16:27.758Z,5.03
2024-03-15T05:19:14.937Z,5.83
2024-03-15T05:22:02.116Z,6.10
2024-03-15T05:24:49.173Z,5.50
2024-03-15T05:27:36.219Z,5.57
2024-03-15T05:30:24.467Z,5.63
2024-03-15T05:33:11.631Z,5.23
2024-03-15T05:35:58.771Z,5.20
2024-03-15T05:38:46.114Z,5.63
2024-03-15T05:41:33.136Z,6.07
2024-03-15T05:44:20.115Z,6.07
2024-03-15T05:47:07.177Z,5.90
2024-03-15T05:49:55.911Z,6.43
2024-03-15T05:52:43.042Z,6.37
2024-03-15T05:55:30.350Z,6.00
2024-03-15T05:58:17.484Z,6.13
2024-03-15T06:01:04.853Z,6.40
2024-03-15T06:03:51.888Z,6.43
2024-03-15T06:06:41.655Z,5.67
2024-03-15T06:09:31.756Z,8.13
2024-03-15T06:12:19.047Z,6.47
2024-03-15T06:15:06.536Z,7.90
2024-03-15T06:17:53.576Z,7.03
2024-03-15T06:20:40.598Z,7.53
2024-03-15T06:23:28.800Z,7.10
2024-03-15T06:26:16.060Z,8.00
2024-03-15T06:29:03.201Z,7.63
2024-03-15T06:31:50.273Z,7.17
2024-03-15T06:34:37.303Z,6.67
2024-03-15T06:37:26.618Z,6.67
2024-03-15T06:40:32.100Z,6.20
2024-03-15T06:43:36.691Z,6.37
2024-03-15T06:46:26.492Z,5.80
2024-03-15T06:49:14.009Z,5.27
2024-03-15T06:52:19.430Z,4.50
2024-03-15T06:55:08.400Z,3.97
2024-03-15T06:57:56.397Z,3.90
2024-03-15T07:00:43.698Z,3.27
2024-03-15T07:03:30.944Z,3.10
2024-03-15T07:06:21.491Z,2.90
2024-03-15T07:09:15.777Z,2.57
2024-03-15T07:12:03.520Z,2.33
2024-03-15T07:14:54.065Z,2.47
2024-03-15T07:17:43.104Z,2.77
2024-03-15T07:20:30.569Z,2.77
2024-03-15T07:23:17.745Z,2.53
2024-03-15T07:26:04.881Z,2.83
2024-03-15T07:28:51.889Z,2.50
2024-03-15T07:31:38.946Z,3.00
2024-03-15T07:34:26.116Z,2.67
2024-03-15T07:37:13.700Z,2.43
2024-03-15T07:40:00.956Z,2.73
2024-03-15T07:42:49.817Z,3.53
2024-03-15T07:45:37.197Z,2.80
2024-03-15T07:48:24.423Z,2.70
2024-03-15T07:51:12.022Z,2.70
2024-03-15T07:53:59.055Z,2.83
2024-03-15T07:56:46.117Z,2.93
2024-03-15T07:59:33.771Z,2.60
2024-03-15T08:02:20.905Z,2.47
2024-03-15T08:05:08.067Z,2.90
2024-03-15T08:07:55.209Z,2.50
2024-03-15T08:10:42.325Z,2.63
2024-03-15T08:13:29.868Z,3.30
2024-03-15T08:16:20.228Z,2.43
2024-03-15T08:19:11.437Z,2.60
2024-03-15T08:21:59.644Z,2.87
2024-03-15T08:24:47.436Z,3.23
2024-03-15T08:27:34.718Z,2.90
2024-03-15T08:30:22.016Z,2.80
2024-03-15T08:33:09.127Z,2.87
2024-03-15T08:35:57.899Z,3.53
2024-03-15T08:38:45.136Z,3.27
2024-03-15T08:41:32.457Z,2.50
2024-03-15T08:44:19.659Z,3.10
2024-03-15T08:47:06.997Z,2.90
2024-03-15T08:49:54.441Z,4.83
2024-03-15T08:52:42.246Z,3.03
2024-03-15T08:55:29.321Z,3.27
2024-03-15T08:58:16.431Z,3.17
2024-03-15T09:01:05.961Z,3.23
2024-03-15T09:03:53.484Z,3.30
2024-03-15T09:06:40.692Z,2.83
2024-03-15T09:09:33.609Z,3.17
2024-03-15T09:12:20.970Z,3.13
2024-03-15T09:15:15.370Z,2.60
2024-03-15T09:18:02.736Z,2.90
2024-03-15T09:20:52.039Z,2.90
2024-03-15T09:23:39.122Z,2.50
2024-03-15T09:26:26.387Z,2.30
2024-03-15T09:29:13.553Z,2.60
2024-03-15T09:32:13.845Z,2.17
2024-03-15T09:35:06.167Z,2.30
2024-03-15T09:37:53.284Z,2.70
2024-03-15T09:40:40.364Z,2.57
2024-03-15T09:43:28.037Z,2.60
2024-03-15T09:46:23.150Z,2.83
2024-03-15T09:49:15.838Z,3.10
2024-03-15T09:52:04.587Z,2.40
2024-03-15T09:54:52.150Z,2.63
2024-03-15T09:57:39.330Z,2.83
2024-03-15T10:00:26.530Z,2.80
2024-03-15T10:03:14.576Z,3.00
2024-03-15T10:06:02.894Z,3.33
2024-03-15T10:08:50.011Z,2.80
2024-03-15T10:11:37.052Z,3.17
2024-03-15T10:14:24.093Z,2.43
2024-03-15T10:17:11.411Z,3.17
2024-03-15T10:19:59.377Z,3.20
2024-03-15T10:22:47.391Z,2.67
2024-03-15T10:25:35.778Z,3.17
2024-03-15T10:28:23.337Z,2.90
2024-03-15T10:31:12.776Z,2.63
2024-03-15T10:33:59.948Z,2.60
2024-03-15T10:36:47.162Z,2.90
2024-03-15T10:39:34.240Z,2.70
2024-03-15T10:42:21.908Z,2.70
2024-03-15T10:45:13.662Z,3.77
2024-03-15T10:48:00.957Z,2.40
2024-03-15T10:50:50.250Z,2.37
2024-03-15T10:53:37.399Z,2.40
2024-03-15T10:56:24.462Z,2.80
2024-03-15T10:59:12.044Z,2.80
2024-03-15T11:01:59.414Z,3.43
2024-03-15T11:04:46.690Z,2.30
2024-03-15T11:07:33.927Z,2.20
2024-03-15T11:10:23.526Z,2.33
2024-03-15T11:13:13.247Z,2.10
2024-03-15T11:16:00.325Z,2.03
2024-03-15T11:18:47.551Z,2.90
2024-03-15T11:21:34.904Z,2.33
2024-03-15T11:24:22.458Z,2.20
2024-03-15T11:27:18.340Z,2.30
2024-03-15T11:30:06.259Z,2.40
2024-03-15T11:32:53.325Z,2.10
2024-03-15T11:35:42.193Z,1.93
2024-03-15T11:38:29.303Z,2.00
2024-03-15T11:41:18.474Z,1.90
2024-03-15T11:44:05.563Z,2.30
2024-03-15T11:46:52.598Z,2.67
2024-03-15T11:49:39.631Z,1.90
2024-03-15T11:52:26.635Z,1.80
2024-03-15T11:55:19.033Z,2.00
2024-03-15T11:58:06.572Z,2.10
2024-03-15T12:00:55.665Z,2.07
2024-03-15T12:03:42.951Z,2.07
2024-03-15T12:06:31.161Z,2.10
2024-03-15T12:09:19.132Z,2.00
2024-03-15T12:12:07.441Z,2.30
2024-03-15T12:14:55.756Z,1.87
2024-03-15T12:17:43.248Z,1.67
2024-03-15T12:20:30.825Z,1.80
2024-03-15T12:23:22.494Z,1.60
2024-03-15T12:26:10.501Z,1.50
2024-03-15T12:28:59.635Z,1.70
2024-03-15T12:31:46.610Z,1.43
2024-03-15T12:34:34.045Z,1.40
2024-03-15T12:37:28.455Z,1.40
2024-03-15T12:40:18.886Z,1.13
2024-03-15T12:43:05.926Z,1.60
2024-03-15T12:45:53.422Z,1.30
2024-03-15T12:48:40.438Z,1.10
2024-03-15T12:51:28.773Z,1.17
2024-03-15T12:54:16.086Z,1.17
2024-03-15T12:57:03.993Z,1.20
2024-03-15T12:59:50.970Z,1.17
2024-03-15T13:02:38.043Z,1.23
2024-03-15T13:05:25.247Z,1.40
2024-03-15T13:08:12.359Z,1.33
2024-03-15T13:10:59.494Z,1.47
2024-03-15T13:13:46.549Z,4.40
2024-03-15T13:16:33.535Z,1.63
2024-03-15T13:19:20.562Z,2.87
2024-03-15T13:22:07.724Z,3.60
2024-03-15T13:24:54.781Z,1.70
2024-03-15T13:27:41.995Z,1.60
2024-03-15T13:30:29.302Z,1.37
2024-03-15T13:33:16.609Z,1.80
2024-03-15T13:36:04.082Z,1.60
2024-03-15T13:38:51.184Z,1.43
2024-03-15T13:41:38.687Z,4.57
2024-03-15T13:44:29.042Z,9.00
2024-03-15T13:47:16.057Z,2.83
2024-03-15T13:50:03.868Z,1.90
2024-03-15T13:52:54.057Z,2.10
2024-03-15T13:55:43.709Z,1.63
2024-03-15T13:58:32.628Z,1.80
2024-03-15T14:01:23.088Z,2.50
2024-03-15T14:04:10.340Z,2.53
2024-03-15T14:06:57.338Z,2.10
2024-03-15T14:09:44.413Z,1.57
2024-03-15T14:12:31.681Z,1.70
2024-03-15T14:15:20.071Z,3.00
2024-03-15T14:18:09.249Z,1.83
2024-03-15T14:20:56.853Z,1.50
2024-03-15T14:23:44.442Z,2.60
2024-03-15T14:26:31.428Z,1.50
2024-03-15T14:29:21.927Z,1.37
2024-03-15T14:32:08.931Z,1.50
2024-03-15T14:34:57.000Z,1.53
2024-03-15T14:37:48.139Z,1.50
2024-03-15T14:40:39.301Z,1.70
2024-03-15T14:43:27.472Z,2.10
2024-03-15T14:46:14.514Z,1.43
2024-03-15T14:49:06.550Z,1.50
2024-03-15T14:51:53.586Z,1.40
2024-03-15T14:54:40.646Z,26.93
2024-03-15T14:57:28.054Z,0.90
2024-03-15T15:00:15.357Z,2.57
2024-03-15T15:03:04.680Z,1.30
2024-03-15T15:05:52.325Z,1.73
2024-03-15T15:08:41.512Z,0.60
2024-03-15T15:11:28.861Z,0.63
2024-03-15T15:14:15.922Z,0.70
2024-03-15T15:17:02.911Z,0.70
2024-03-15T15:19:50.279Z,0.80
2024-03-15T15:22:42.099Z,0.70
2024-03-15T15:25:29.218Z,0.70
2024-03-15T15:28:16.378Z,0.80
2024-03-15T15:31:03.562Z,1.13
2024-03-15T15:33:50.643Z,0.70
2024-03-15T15:36:37.869Z,0.77
2024-03-15T15:39:24.932Z,0.60
2024-03-15T15:42:11.950Z,0.40
2024-03-15T15:44:58.953Z,5.40
2024-03-15T15:47:46.744Z,3.00
2024-03-15T15:50:34.037Z,1.13
2024-03-15T15:53:21.056Z,0.90
2024-03-15T15:56:08.317Z,2.37
2024-03-15T15:58:55.392Z,1.80
2024-03-15T16:01:42.787Z,0.73
2024-03-15T16:04:31.695Z,0.73
2024-03-15T16:07:19.603Z,0.80
2024-03-15T16:10:07.199Z,1.07
2024-03-15T16:12:54.522Z,0.77
2024-03-15T16:15:41.838Z,0.70
2024-03-15T16:18:29.640Z,0.67
2024-03-15T16:21:16.679Z,0.80
2024-03-15T16:24:03.777Z,1.20
2024-03-15T16:26:51.205Z,1.43
2024-03-15T16:29:38.229Z,1.00
2024-03-15T16:32:26.293Z,0.73
2024-03-15T16:35:14.391Z,1.30
2024-03-15T16:38:01.394Z,1.23
2024-03-15T16:40:49.487Z,4.87
2024-03-15T16:43:36.506Z,0.80
2024-03-15T16:46:24.364Z,0.70
2024-03-15T16:49:11.466Z,0.83
2024-03-15T16:51:59.658Z,1.33
2024-03-15T16:54:46.809Z,1.13
2024-03-15T16:57:34.182Z,1.60
2024-03-15T17:00:22.561Z,0.80
2024-03-15T17:03:09.895Z,1.03
2024-03-15T17:05:56.884Z,0.93
2024-03-15T17:08:43.891Z,0.93
2024-03-15T17:11:33.941Z,0.70
2024-03-15T17:14:21.378Z,0.90
2024-03-15T17:17:11.947Z,1.40
2024-03-15T17:19:59.636Z,1.13
2024-03-15T17:22:46.598Z,1.27
2024-03-15T17:25:34.298Z,1.03
2024-03-15T17:28:21.456Z,1.00
2024-03-15T17:31:08.510Z,12.20
2024-03-15T17:33:55.695Z,1.03
2024-03-15T17:36:42.775Z,1.00
2024-03-15T17:39:29.877Z,0.90
2024-03-15T17:42:17.469Z,0.80
2024-03-15T17:45:10.337Z,1.00
2024-03-15T17:47:57.432Z,1.00
2024-03-15T17:50:44.889Z,1.20
2024-03-15T17:53:31.873Z,1.07
2024-03-15T17:56:22.209Z,1.37
2024-03-15T17:59:09.240Z,0.80
2024-03-15T18:01:56.440Z,0.77
2024-03-15T18:04:43.893Z,0.70
2024-03-15T18:07:32.672Z,0.70
2024-03-15T18:10:19.761Z,0.70
2024-03-15T18:13:06.789Z,0.90
2024-03-15T18:15:56.275Z,0.80
2024-03-15T18:18:43.806Z,1.13
2024-03-15T18:21:30.953Z,1.27
2024-03-15T18:24:17.997Z,2.00
2024-03-15T18:27:05.034Z,1.13
2024-03-15T18:29:52.187Z,0.90
2024-03-15T18:32:39.176Z,1.50
2024-03-15T18:35:26.326Z,1.40
2024-03-15T18:38:13.674Z,1.23
2024-03-15T18:41:00.897Z,1.00
2024-03-15T18:43:47.892Z,1.00
2024-03-15T18:46:34.890Z,1.53
2024-03-15T18:49:21.951Z,1.27
2024-03-15T18:52:11.080Z,1.63
2024-03-15T18:54:58.354Z,2.67
2024-03-15T18:57:49.606Z,10.43
2024-03-15T19:00:37.116Z,6.93
2024-03-15T19:03:24.326Z,6.40
2024-03-15T19:06:11.701Z,4.13
2024-03-15T19:08:58.669Z,15.73
2024-03-15T19:11:45.720Z,8.20
2024-03-15T19:14:32.826Z,3.77
2024-03-15T19:17:19.824Z,1.70
2024-03-15T19:20:09.630Z,2.80
2024-03-15T19:22:56.622Z,1.70
2024-03-15T19:25:44.094Z,2.23
2024-03-15T19:28:32.585Z,2.33
2024-03-15T19:31:19.714Z,2.13
2024-03-15T19:34:07.051Z,2.40
2024-03-15T19:36:54.115Z,1.70
2024-03-15T19:39:41.149Z,1.80
2024-03-15T19:42:28.570Z,1.43
2024-03-15T19:45:17.698Z,1.60
2024-03-15T19:48:05.254Z,0.97
2024-03-15T19:50:52.274Z,1.10
2024-03-15T19:53:39.252Z,1.20
2024-03-15T19:56:26.270Z,1.40
2024-03-15T19:59:15.215Z,1.30
2024-03-15T20:02:06.648Z,1.17
2024-03-15T20:04:53.865Z,1.10
2024-03-15T20:07:41.058Z,1.30
2024-03-15T20:10:33.244Z,1.70
2024-03-15T20:13:20.444Z,1.60
2024-03-15T20:16:07.554Z,1.77
2024-03-15T20:18:54.820Z,1.40
2024-03-15T20:21:45.727Z,1.30
2024-03-15T20:24:32.820Z,1.50
2024-03-15T20:27:20.148Z,1.20
2024-03-15T20:30:09.343Z,1.33
2024-03-15T20:32:56.474Z,1.70
2024-03-15T20:35:43.612Z,1.20
2024-03-15T20:38:30.591Z,1.20
2024-03-15T20:41:18.418Z,1.30
2024-03-15T20:44:05.402Z,1.27
2024-03-15T20:46:52.385Z,1.20
2024-03-15T20:49:41.028Z,1.40
2024-03-15T20:52:28.076Z,1.10
2024-03-15T20:55:15.156Z,1.20
2024-03-15T20:58:02.544Z,1.20
2024-03-15T21:00:50.316Z,1.07
2024-03-15T21:03:37.413Z,1.30
2024-03-15T21:06:27.176Z,1.30
2024-03-15T21:09:15.204Z,1.30
2024-03-15T21:12:03.035Z,1.20
2024-03-15T21:14:50.189Z,1.20
2024-03-15T21:17:38.358Z,1.37
2024-03-15T21:20:27.478Z,1.80
2024-03-15T21:23:14.593Z,1.73
2024-03-15T21:26:01.746Z,1.93
2024-03-15T21:28:48.807Z,1.70
2024-03-15T21:31:35.808Z,1.50
2024-03-15T21:34:22.867Z,1.40
2024-03-15T21:37:10.858Z,1.43
2024-03-15T21:39:59.638Z,1.97
2024-03-15T21:42:48.576Z,1.77
2024-03-15T21:45:35.789Z,1.33
2024-03-15T21:48:22.820Z,1.80
2024-03-15T21:51:09.803Z,1.37
2024-03-15T21:53:56.830Z,1.30
2024-03-15T21:56:45.609Z,1.13
2024-03-15T21:59:32.706Z,1.30
2024-03-15T22:02:20.373Z,1.37
2024-03-15T22:05:08.633Z,1.30
2024-03-15T22:07:55.961Z,1.40
2024-03-15T22:10:42.999Z,1.03
2024-03-15T22:13:31.398Z,1.57
2024-03-15T22:16:20.076Z,1.40
2024-03-15T22:19:07.754Z,2.13
2024-03-15T22:21:54.932Z,1.87
2024-03-15T22:24:42.786Z,1.73
2024-03-15T22:27:30.040Z,1.87
2024-03-15T22:30:18.724Z,1.70
2024-03-15T22:33:06.193Z,1.50
2024-03-15T22:35:54.399Z,1.70
2024-03-15T22:38:41.397Z,1.60
2024-03-15T22:41:28.907Z,1.60
2024-03-15T22:44:15.965Z,1.77
2024-03-15T22:47:02.997Z,1.80
2024-03-15T22:49:49.977Z,1.83
2024-03-15T22:52:36.997Z,1.90
2024-03-15T22:55:24.164Z,1.87
2024-03-15T22:58:12.122Z,2.07
2024-03-15T23:01:00.377Z,1.50
2024-03-15T23:03:47.626Z,1.77
2024-03-15T23:06:35.204Z,1.47
2024-03-15T23:09:22.269Z,1.70
2024-03-15T23:12:09.352Z,1.50
2024-03-15T23:14:56.530Z,1.80
2024-03-15T23:17:44.780Z,2.00
2024-03-15T23:20:31.830Z,2.10
2024-03-15T23:23:19.160Z,1.87
2024-03-15T23:26:06.155Z,1.80
2024-03-15T23:28:53.185Z,2.10
2024-03-15T23:31:40.201Z,1.87
2024-03-15T23:34:27.239Z,1.90
2024-03-15T23:37:14.350Z,2.30
2024-03-15T23:40:02.033Z,2.03
2024-03-15T23:42:49.660Z,1.90
2024-03-15T23:45:37.035Z,1.83
2024-03-15T23:48:28.888Z,2.17
2024-03-15T23:51:15.991Z,2.00
2024-03-15T23:54:04.124Z,2.13
2024-03-15T23:56:51.183Z,2.20
2024-03-15T23:59:38.225Z,2.13
